Southwest Georgia Regional Airport
KABY : now visible

Airfield :











YOU CAN JOIN US ON...

 
LOGIN :

Register | Disclaimer

   EN    FR    IT 

 









Legend :    VFR   Marginal VFR   IFR   Intensive IFR   Very Intensive IFR
Visi :
Ceiling :
>= 8 km
>= 3000ft
5 to 8 km
1000 to 3000 ft
1500m to 5 km
500 to 1000 ft
800 to 1500m
200 to 500 ft
< 800m
< 200 ft
Symbols :   Thunderstorms  Fog  Heavy snow  Heavy precipitations  Wind > 20 kt






- Airport Elevation : 197 ft
- IATA code : ABY


KABY - Southwest Georgia Regional

CURRENT METAR :
  • 142053Z 27008KT 10SM CLR 16/07 A2987 RMK AO2 SLP116 T01560072 53000

EXPIRED METARs :
  • 141953Z 27008KT 10SM CLR 15/07 A2986 RMK AO2 SLP111 T01500072
  • 141913Z 27011KT 10SM FEW025 15/07 A2986 RMK AO2 T01500072
  • 141853Z 30012G18KT 10SM BKN025 14/01 A2986 RMK AO2 SLP112 T01390006

TAF KABY
Valid from the 14 at 18:00 until the 15 at 18:00 UTC


141720Z 1418/1518 27007KT P6SM OVC015
FM141900 28010KT P6SM SCT015
FM150800 00000KT 2SM BR SCT015
FM151500 14005KT P6SM SCT015



MET'MAP, your aeronautical weather chart ! - Copyright ORBIFLY December 2007 - Disclaimer

ORBIFLY MET'MAP TEAM :

Programming & Development : Alexandra Zaïnal
Concept & original design : Baudouin d'Aumeries
Assistance for programming : Marc-Olivier Méhu
Technical & hardware support : Manuel Goepfert

Contact : metmap@orbifly.com




SOURCES & CREDITS :

   NOAA       Earth
Advisory